createdAt,value
2022-08-16T00:00:28.046Z,24.84
2022-08-16T00:01:29.004Z,24.84
2022-08-16T00:02:28.163Z,24.84
2022-08-16T00:03:27.714Z,24.84
2022-08-16T00:04:27.159Z,24.84
2022-08-16T00:05:27.529Z,24.83
2022-08-16T00:06:27.978Z,24.82
2022-08-16T00:07:29.303Z,24.81
2022-08-16T00:08:36.067Z,24.80
2022-08-16T00:09:27.939Z,24.79
2022-08-16T00:10:26.970Z,24.77
2022-08-16T00:11:26.950Z,24.77
2022-08-16T00:12:27.110Z,24.76
2022-08-16T00:13:26.962Z,24.75
2022-08-16T00:14:28.969Z,24.75
2022-08-16T00:15:51.121Z,24.75
2022-08-16T00:17:05.886Z,24.75
2022-08-16T00:17:28.151Z,24.75
2022-08-16T00:18:30.053Z,24.74
2022-08-16T00:19:28.210Z,24.75
2022-08-16T00:20:27.515Z,24.74
2022-08-16T00:21:29.070Z,24.73
2022-08-16T00:22:27.907Z,24.73
2022-08-16T00:23:34.385Z,24.73
2022-08-16T00:24:31.355Z,24.73
2022-08-16T00:26:33.880Z,24.72
2022-08-16T00:26:34.592Z,24.72
2022-08-16T00:27:27.785Z,24.71
2022-08-16T00:28:28.611Z,24.71
2022-08-16T00:29:26.749Z,24.71
2022-08-16T00:30:29.028Z,24.71
2022-08-16T00:31:27.388Z,24.70
2022-08-16T00:32:27.775Z,24.70
2022-08-16T00:33:27.688Z,24.69
2022-08-16T00:34:45.132Z,24.68
2022-08-16T00:35:28.659Z,24.67
2022-08-16T00:36:28.632Z,24.66
2022-08-16T00:37:58.512Z,24.65
2022-08-16T00:38:40.258Z,24.64
2022-08-16T00:39:27.663Z,24.62
2022-08-16T00:40:26.639Z,24.61
2022-08-16T00:41:27.663Z,24.60
2022-08-16T00:42:30.459Z,24.60
2022-08-16T00:43:43.318Z,24.59
2022-08-16T00:44:31.985Z,24.58
2022-08-16T00:45:28.251Z,24.57
2022-08-16T00:46:33.801Z,24.55
2022-08-16T00:47:30.072Z,24.54
2022-08-16T00:48:30.679Z,24.52
2022-08-16T00:49:28.282Z,24.51
2022-08-16T00:50:36.629Z,24.49
2022-08-16T00:51:29.478Z,24.48
2022-08-16T00:52:30.402Z,24.45
2022-08-16T00:53:26.535Z,24.45
2022-08-16T00:54:26.491Z,24.44
2022-08-16T00:55:26.484Z,24.43
2022-08-16T00:56:58.592Z,24.42
2022-08-16T00:57:27.557Z,24.43
2022-08-16T00:58:34.936Z,24.43
2022-08-16T00:59:27.480Z,24.42
2022-08-16T01:00:26.448Z,24.43
2022-08-16T01:01:26.693Z,24.43
2022-08-16T01:02:31.464Z,24.43
2022-08-16T01:03:30.419Z,24.43
2022-08-16T01:04:30.944Z,24.43
2022-08-16T01:05:27.053Z,24.43
2022-08-16T01:06:39.964Z,24.43
2022-08-16T01:07:28.009Z,24.43
2022-08-16T01:08:35.408Z,24.42
2022-08-16T01:09:27.350Z,24.40
2022-08-16T01:10:31.367Z,24.40
2022-08-16T01:11:26.280Z,24.39
2022-08-16T01:12:27.204Z,24.38
2022-08-16T01:13:26.953Z,24.37
2022-08-16T01:14:30.098Z,24.36
2022-08-16T01:15:26.263Z,24.34
2022-08-16T01:16:26.270Z,24.33
2022-08-16T01:17:26.901Z,24.32
2022-08-16T01:18:40.265Z,24.31
2022-08-16T01:19:29.272Z,24.31
2022-08-16T01:20:30.611Z,24.31
2022-08-16T01:21:33.398Z,24.30
2022-08-16T01:22:48.425Z,24.31
2022-08-16T01:23:27.869Z,24.31
2022-08-16T01:24:52.502Z,24.31
2022-08-16T01:25:34.161Z,24.33
2022-08-16T01:26:34.856Z,24.33
2022-08-16T01:27:27.149Z,24.33
2022-08-16T01:28:30.838Z,24.34
2022-08-16T01:29:47.172Z,24.34
2022-08-16T01:30:29.040Z,24.35
2022-08-16T01:31:30.979Z,24.36
2022-08-16T01:32:31.474Z,24.36
2022-08-16T01:33:33.504Z,24.37
2022-08-16T01:34:28.957Z,24.36
2022-08-16T01:35:26.069Z,24.36
2022-08-16T01:36:26.805Z,24.35
2022-08-16T01:37:26.688Z,24.35
2022-08-16T01:38:28.435Z,24.32
2022-08-16T01:39:26.149Z,24.29
2022-08-16T01:40:26.040Z,24.26
2022-08-16T01:41:26.032Z,24.23
2022-08-16T01:42:26.673Z,24.19
2022-08-16T01:43:26.629Z,24.16
2022-08-16T01:44:25.939Z,24.12
2022-08-16T01:45:40.662Z,24.10
2022-08-16T01:46:29.704Z,24.08
2022-08-16T01:47:26.924Z,24.05
2022-08-16T01:48:25.931Z,24.03
2022-08-16T01:49:26.563Z,24.01
2022-08-16T01:50:43.440Z,24.00
2022-08-16T01:51:26.904Z,24.00
2022-08-16T01:52:29.533Z,23.98
2022-08-16T01:53:26.514Z,23.97
2022-08-16T01:54:31.186Z,23.96
2022-08-16T01:55:26.833Z,23.95
2022-08-16T01:56:26.857Z,23.94
2022-08-16T01:57:25.826Z,23.92
2022-08-16T01:58:25.815Z,23.91
2022-08-16T01:59:25.775Z,23.90
2022-08-16T02:00:29.480Z,23.89
2022-08-16T02:01:28.092Z,23.89
2022-08-16T02:02:27.087Z,23.88
2022-08-16T02:03:26.703Z,23.87
2022-08-16T02:04:48.273Z,23.86
2022-08-16T02:05:30.367Z,23.86
2022-08-16T02:06:34.706Z,23.84
2022-08-16T02:07:28.619Z,23.83
2022-08-16T02:08:33.617Z,23.81
2022-08-16T02:09:28.231Z,23.80
2022-08-16T02:10:26.650Z,23.80
2022-08-16T02:11:26.330Z,23.78
2022-08-16T02:12:51.585Z,23.78
2022-08-16T02:13:27.722Z,23.76
2022-08-16T02:14:26.334Z,23.76
2022-08-16T02:15:25.977Z,23.75
2022-08-16T02:16:26.275Z,23.74
2022-08-16T02:17:25.641Z,23.74
2022-08-16T02:18:25.587Z,23.74
2022-08-16T02:19:59.481Z,23.74
2022-08-16T02:20:27.930Z,23.75
2022-08-16T02:21:31.033Z,23.75
2022-08-16T02:22:46.726Z,23.76
2022-08-16T02:23:26.515Z,23.76
2022-08-16T02:24:31.845Z,23.77
2022-08-16T02:25:25.574Z,23.78
2022-08-16T02:26:28.452Z,23.77
2022-08-16T02:27:27.146Z,23.78
2022-08-16T02:28:25.565Z,23.78
2022-08-16T02:29:25.445Z,23.78
2022-08-16T02:30:36.847Z,23.77
2022-08-16T02:32:04.332Z,23.78
2022-08-16T02:32:50.649Z,23.78
2022-08-16T02:33:43.672Z,23.76
2022-08-16T02:34:32.702Z,23.76
2022-08-16T02:35:26.403Z,23.75
2022-08-16T02:36:42.450Z,23.74
2022-08-16T02:37:51.742Z,23.73
2022-08-16T02:38:28.354Z,23.73
2022-08-16T02:39:25.391Z,23.72
2022-08-16T02:40:25.583Z,23.72
2022-08-16T02:41:25.340Z,23.71
2022-08-16T02:42:25.343Z,23.71
2022-08-16T02:43:26.654Z,23.71
2022-08-16T02:44:26.889Z,23.71
2022-08-16T02:45:27.876Z,23.71
2022-08-16T02:46:33.463Z,23.70
2022-08-16T02:47:26.943Z,23.70
2022-08-16T02:48:29.369Z,23.68
2022-08-16T02:49:58.581Z,23.69
2022-08-16T02:50:54.412Z,23.66
2022-08-16T02:51:26.204Z,23.66
2022-08-16T02:52:29.351Z,23.66
2022-08-16T02:53:25.193Z,23.65
2022-08-16T02:54:26.085Z,23.65
2022-08-16T02:55:41.185Z,23.65
2022-08-16T02:56:32.334Z,23.64
2022-08-16T02:57:26.493Z,23.63
2022-08-16T02:58:25.416Z,23.63
2022-08-16T02:59:25.159Z,23.62
2022-08-16T03:00:33.923Z,23.61
2022-08-16T03:01:37.137Z,23.60
2022-08-16T03:02:32.098Z,23.59
2022-08-16T03:03:26.107Z,23.59
2022-08-16T03:04:49.527Z,23.59
2022-08-16T03:05:30.791Z,23.57
2022-08-16T03:06:41.543Z,23.58
2022-08-16T03:07:28.040Z,23.57
2022-08-16T03:08:50.676Z,23.56
2022-08-16T03:09:28.678Z,23.56
2022-08-16T03:10:33.589Z,23.54
2022-08-16T03:11:26.007Z,23.54
2022-08-16T03:12:30.465Z,23.53
2022-08-16T03:13:26.986Z,23.52
2022-08-16T03:14:25.092Z,23.51
2022-08-16T03:15:24.960Z,23.52
2022-08-16T03:16:32.920Z,23.50
2022-08-16T03:17:32.241Z,23.51
2022-08-16T03:18:40.121Z,23.50
2022-08-16T03:19:26.969Z,23.49
2022-08-16T03:20:32.589Z,23.48
2022-08-16T03:21:25.893Z,23.49
2022-08-16T03:22:28.346Z,23.49
2022-08-16T03:23:25.535Z,23.50
2022-08-16T03:24:28.756Z,23.49
2022-08-16T03:25:25.264Z,23.48
2022-08-16T03:26:26.807Z,23.48
2022-08-16T03:27:24.825Z,23.48
2022-08-16T03:28:25.485Z,23.49
2022-08-16T03:29:35.322Z,23.48
2022-08-16T03:30:24.853Z,23.48
2022-08-16T03:31:25.248Z,23.48
2022-08-16T03:32:27.735Z,23.47
2022-08-16T03:33:25.440Z,23.48
2022-08-16T03:34:26.181Z,23.47
2022-08-16T03:35:32.606Z,23.46
2022-08-16T03:36:30.856Z,23.46
2022-08-16T03:37:25.788Z,23.46
2022-08-16T03:38:34.070Z,23.45
2022-08-16T03:39:27.145Z,23.45
2022-08-16T03:40:32.823Z,23.45
2022-08-16T03:41:29.443Z,23.45
2022-08-16T03:42:26.329Z,23.44
2022-08-16T03:43:24.640Z,23.44
2022-08-16T03:44:40.814Z,23.43
2022-08-16T03:45:30.554Z,23.44
2022-08-16T03:46:48.426Z,23.43
2022-08-16T03:47:27.582Z,23.43
2022-08-16T03:48:36.895Z,23.42
2022-08-16T03:49:36.431Z,23.43
2022-08-16T03:50:26.986Z,23.41
2022-08-16T03:51:25.500Z,23.40
2022-08-16T03:52:31.355Z,23.40
2022-08-16T03:53:25.533Z,23.40
2022-08-16T03:54:25.546Z,23.39
2022-08-16T03:55:25.206Z,23.39
2022-08-16T03:56:27.143Z,23.39
2022-08-16T03:57:32.078Z,23.38
2022-08-16T03:58:25.536Z,23.37
2022-08-16T03:59:25.155Z,23.36
2022-08-16T04:00:35.858Z,23.35
2022-08-16T04:01:29.411Z,23.33
2022-08-16T04:02:31.690Z,23.32
2022-08-16T04:03:26.520Z,23.31
2022-08-16T04:04:32.721Z,23.31
2022-08-16T04:05:26.370Z,23.31
2022-08-16T04:06:25.081Z,23.30
2022-08-16T04:07:25.068Z,23.30
2022-08-16T04:08:25.050Z,23.29
2022-08-16T04:09:25.047Z,23.29
2022-08-16T04:10:35.940Z,23.29
2022-08-16T04:11:26.011Z,23.28
2022-08-16T04:12:53.245Z,23.28
2022-08-16T04:14:01.492Z,23.28
2022-08-16T04:14:33.265Z,23.28
2022-08-16T04:15:26.735Z,23.29
2022-08-16T04:16:27.786Z,23.30
2022-08-16T04:17:24.952Z,23.30
2022-08-16T04:18:24.958Z,23.30
2022-08-16T04:19:24.931Z,23.30
2022-08-16T04:20:34.070Z,23.29
2022-08-16T04:21:29.609Z,23.30
2022-08-16T04:22:27.736Z,23.30
2022-08-16T04:23:24.883Z,23.31
2022-08-16T04:24:28.813Z,23.29
2022-08-16T04:25:25.146Z,23.29
2022-08-16T04:26:30.962Z,23.28
2022-08-16T04:27:28.733Z,23.27
2022-08-16T04:28:52.205Z,23.27
2022-08-16T04:29:26.063Z,23.26
2022-08-16T04:30:32.103Z,23.25
2022-08-16T04:31:25.187Z,23.25
2022-08-16T04:32:25.796Z,23.25
2022-08-16T04:33:27.306Z,23.24
2022-08-16T04:34:24.903Z,23.23
2022-08-16T04:35:24.755Z,23.23
2022-08-16T04:36:24.746Z,23.24
2022-08-16T04:37:25.497Z,23.23
2022-08-16T04:38:24.113Z,23.23
2022-08-16T04:39:24.296Z,23.23
2022-08-16T04:40:25.305Z,23.22
2022-08-16T04:41:32.973Z,23.21
2022-08-16T04:42:29.779Z,23.21
2022-08-16T04:43:25.944Z,23.21
2022-08-16T04:44:53.156Z,23.20
2022-08-16T04:45:35.642Z,23.20
2022-08-16T04:47:01.507Z,23.20
2022-08-16T04:47:33.142Z,23.20
2022-08-16T04:48:32.592Z,23.21
2022-08-16T04:49:25.604Z,23.22
2022-08-16T04:50:29.714Z,23.23
2022-08-16T04:51:23.963Z,23.23
2022-08-16T04:52:33.548Z,23.25
2022-08-16T04:53:25.576Z,23.25
2022-08-16T04:54:23.884Z,23.26
2022-08-16T04:55:31.840Z,23.29
2022-08-16T04:56:26.505Z,23.31
2022-08-16T04:57:23.846Z,23.33
2022-08-16T04:58:44.920Z,23.36
2022-08-16T04:59:29.511Z,23.38
2022-08-16T05:00:31.028Z,23.41
2022-08-16T05:01:57.718Z,23.44
2022-08-16T05:02:41.636Z,23.47
2022-08-16T05:03:26.044Z,23.50
2022-08-16T05:04:24.456Z,23.53
2022-08-16T05:05:24.748Z,23.58
2022-08-16T05:06:23.829Z,23.60
2022-08-16T05:07:25.419Z,23.62
2022-08-16T05:08:27.961Z,23.63
2022-08-16T05:09:28.506Z,23.65
2022-08-16T05:10:23.720Z,23.65
2022-08-16T05:11:24.370Z,23.66
2022-08-16T05:12:30.372Z,23.65
2022-08-16T05:13:41.649Z,23.67
2022-08-16T05:14:45.550Z,23.68
2022-08-16T05:15:26.302Z,23.70
2022-08-16T05:16:24.322Z,23.73
2022-08-16T05:17:24.916Z,23.78
2022-08-16T05:18:23.613Z,23.83
2022-08-16T05:19:23.744Z,23.91
2022-08-16T05:20:39.306Z,24.01
2022-08-16T05:21:26.997Z,24.09
2022-08-16T05:22:23.573Z,24.15
2022-08-16T05:23:23.586Z,24.21
2022-08-16T05:24:24.797Z,24.26
2022-08-16T05:25:23.576Z,24.31
2022-08-16T05:26:26.436Z,-143.64
2022-08-16T05:27:23.552Z,-143.64
2022-08-16T05:28:30.858Z,-143.64
2022-08-16T05:29:25.053Z,-143.64
2022-08-16T05:30:35.636Z,-143.64
2022-08-16T05:31:29.862Z,-143.64
2022-08-16T05:32:32.351Z,-143.64
2022-08-16T05:33:27.217Z,-143.64
2022-08-16T05:34:24.127Z,-143.64
2022-08-16T05:35:24.566Z,-143.64
2022-08-16T05:36:24.189Z,-143.64
2022-08-16T05:37:24.628Z,-143.64
2022-08-16T05:38:33.148Z,-143.64
2022-08-16T05:39:26.866Z,-143.64
2022-08-16T05:40:23.449Z,-143.64
2022-08-16T05:41:24.059Z,-143.64
2022-08-16T05:42:23.698Z,-143.64
2022-08-16T05:43:24.350Z,-143.64
2022-08-16T05:44:25.011Z,-143.64
2022-08-16T05:45:24.023Z,-143.64
2022-08-16T05:46:29.900Z,-143.64
2022-08-16T05:47:26.275Z,-143.64
2022-08-16T05:48:26.985Z,-143.64
2022-08-16T05:49:25.264Z,-143.64
2022-08-16T05:50:28.299Z,-143.64
2022-08-16T05:51:36.884Z,-143.64
2022-08-16T05:52:27.807Z,-143.64
2022-08-16T05:53:24.326Z,-143.64
2022-08-16T05:54:25.740Z,-143.64
2022-08-16T05:55:23.225Z,-143.64
2022-08-16T05:56:23.215Z,-143.64
2022-08-16T05:57:23.901Z,-143.64
2022-08-16T05:58:33.124Z,-143.64
2022-08-16T05:59:26.809Z,-143.64
2022-08-16T06:00:23.844Z,-143.64
2022-08-16T06:01:23.910Z,-143.64
2022-08-16T06:02:23.826Z,-143.64
2022-08-16T06:03:24.142Z,-143.64
2022-08-16T06:04:36.252Z,-143.64
2022-08-16T06:05:24.209Z,-143.64
2022-08-16T06:06:28.881Z,-143.64
2022-08-16T06:07:26.532Z,-143.64
2022-08-16T06:08:31.890Z,-143.64
2022-08-16T06:09:24.749Z,-143.64
2022-08-16T06:10:32.471Z,-143.64
2022-08-16T06:11:25.534Z,-143.64
2022-08-16T06:12:27.021Z,-143.64
2022-08-16T06:13:24.101Z,-143.64
2022-08-16T06:14:23.702Z,-143.64
2022-08-16T06:15:25.452Z,-143.64
2022-08-16T06:16:23.672Z,-143.64
2022-08-16T06:17:23.033Z,-143.64
2022-08-16T06:18:27.299Z,-143.64
2022-08-16T06:19:23.763Z,-143.64
2022-08-16T06:20:24.219Z,-143.64
2022-08-16T06:21:23.934Z,-143.64
2022-08-16T06:22:37.614Z,-143.64
2022-08-16T06:23:24.401Z,-143.64
2022-08-16T06:24:52.634Z,-143.64
2022-08-16T06:25:35.531Z,-143.64
2022-08-16T06:26:36.852Z,-143.64
2022-08-16T06:27:23.866Z,-143.64
2022-08-16T06:28:34.915Z,-143.64
2022-08-16T06:29:23.886Z,-143.64
2022-08-16T06:30:23.526Z,-143.64
2022-08-16T06:31:25.033Z,-143.64
2022-08-16T06:32:27.152Z,-143.64
2022-08-16T06:33:23.799Z,-143.64
2022-08-16T06:34:55.580Z,-143.64
2022-08-16T06:35:25.787Z,-143.64
2022-08-16T06:36:26.760Z,-143.64
2022-08-16T06:37:23.462Z,-143.64
2022-08-16T06:38:33.756Z,-143.64
2022-08-16T06:39:26.189Z,-143.64
2022-08-16T06:40:22.768Z,-143.64
2022-08-16T06:41:24.290Z,-143.64
2022-08-16T06:42:23.406Z,-143.64
2022-08-16T06:43:27.636Z,-143.64
2022-08-16T06:44:24.654Z,-143.64
2022-08-16T06:45:22.682Z,-143.64
2022-08-16T06:46:23.872Z,-143.64
2022-08-16T06:47:23.705Z,-143.64
2022-08-16T06:48:33.021Z,-143.64
2022-08-16T06:49:24.336Z,-143.64
2022-08-16T06:50:29.681Z,-143.64
2022-08-16T06:51:23.625Z,-143.64
2022-08-16T06:52:58.137Z,-143.64
2022-08-16T06:53:23.727Z,-143.64
2022-08-16T06:54:22.619Z,-143.64
2022-08-16T06:55:23.257Z,-143.64
2022-08-16T06:56:23.676Z,-143.64
2022-08-16T06:57:22.571Z,-143.64
2022-08-16T06:58:31.814Z,-143.64
2022-08-16T06:59:25.988Z,-143.64
2022-08-16T07:00:24.485Z,-143.64
2022-08-16T07:01:43.145Z,-143.64
2022-08-16T07:02:33.042Z,-143.64
2022-08-16T07:03:28.078Z,-143.64
2022-08-16T07:04:32.490Z,-143.64
2022-08-16T07:05:27.318Z,-143.64
2022-08-16T07:06:26.680Z,-143.64
2022-08-16T07:07:23.140Z,-143.64
2022-08-16T07:08:23.133Z,-143.64
2022-08-16T07:09:24.454Z,-143.64
2022-08-16T07:10:26.724Z,-143.64
2022-08-16T07:11:45.683Z,-143.64
2022-08-16T07:12:47.662Z,-143.64
2022-08-16T07:14:00.318Z,-143.64
2022-08-16T07:14:27.154Z,-143.64
2022-08-16T07:15:22.377Z,-143.64
2022-08-16T07:16:22.589Z,-143.64
2022-08-16T07:17:25.970Z,-143.64
2022-08-16T07:18:24.562Z,-143.64
2022-08-16T07:19:23.021Z,-143.64
2022-08-16T07:20:35.454Z,-143.64
2022-08-16T07:21:23.311Z,-143.64
2022-08-16T07:22:37.247Z,-143.64
2022-08-16T07:23:37.066Z,-143.64
2022-08-16T07:24:29.585Z,-143.64
2022-08-16T07:25:23.006Z,-143.64
2022-08-16T07:26:25.230Z,-143.64
2022-08-16T07:27:22.941Z,-143.64
2022-08-16T07:28:24.560Z,-143.64
2022-08-16T07:29:22.936Z,-143.64
2022-08-16T07:30:45.944Z,-143.64
2022-08-16T07:31:23.644Z,-143.64
2022-08-16T07:32:29.608Z,-143.64
2022-08-16T07:33:51.846Z,-143.64
2022-08-16T07:34:35.335Z,-143.64
2022-08-16T07:35:23.192Z,-143.64
2022-08-16T07:36:22.945Z,-143.64
2022-08-16T07:37:23.247Z,-143.64
2022-08-16T07:38:33.591Z,-143.64
2022-08-16T07:39:24.648Z,-143.64
2022-08-16T07:40:37.234Z,-143.64
2022-08-16T07:41:23.126Z,-143.64
2022-08-16T07:42:26.141Z,-143.64
2022-08-16T07:43:23.788Z,-143.64
2022-08-16T07:44:23.090Z,-143.64
2022-08-16T07:45:22.764Z,-143.64
2022-08-16T07:46:37.560Z,-143.64
2022-08-16T07:47:24.485Z,-143.64
2022-08-16T07:48:24.129Z,-143.64
2022-08-16T07:49:22.051Z,-143.64
2022-08-16T07:50:56.151Z,-143.64
2022-08-16T07:51:23.711Z,-143.64
2022-08-16T07:52:22.681Z,-143.64
2022-08-16T07:53:22.672Z,-143.64
2022-08-16T07:54:37.749Z,-143.64
2022-08-16T07:55:24.911Z,-143.64
2022-08-16T07:56:22.666Z,-143.64
2022-08-16T07:57:24.938Z,-143.64
2022-08-16T07:58:34.722Z,-143.64
2022-08-16T07:59:23.615Z,-143.64
2022-08-16T08:00:22.006Z,-143.64
2022-08-16T08:01:22.010Z,-143.64
2022-08-16T08:02:21.925Z,-143.64
2022-08-16T08:03:23.036Z,-143.64
2022-08-16T08:04:22.917Z,-143.64
2022-08-16T08:05:25.439Z,-143.64
2022-08-16T08:06:24.680Z,-143.64
2022-08-16T08:07:22.550Z,-143.64
2022-08-16T08:08:51.299Z,-143.64
2022-08-16T08:09:24.816Z,-143.64
2022-08-16T08:10:29.666Z,-143.64
2022-08-16T08:11:23.956Z,-143.64
2022-08-16T08:12:32.475Z,-143.64
2022-08-16T08:13:28.934Z,-143.64
2022-08-16T08:14:29.750Z,-143.64
2022-08-16T08:15:25.614Z,-143.64
2022-08-16T08:16:21.761Z,-143.64
2022-08-16T08:17:23.701Z,-143.64
2022-08-16T08:18:29.847Z,-143.64
2022-08-16T08:19:23.662Z,-143.64
2022-08-16T08:20:28.028Z,-143.64
2022-08-16T08:21:26.183Z,-143.64
2022-08-16T08:22:23.195Z,-143.64
2022-08-16T08:23:22.377Z,-143.64
2022-08-16T08:24:22.418Z,-143.64
2022-08-16T08:25:23.354Z,-143.64
2022-08-16T08:26:22.343Z,-143.64
2022-08-16T08:27:23.409Z,-143.64
2022-08-16T08:28:21.635Z,-143.64
2022-08-16T08:29:22.881Z,-143.64
2022-08-16T08:30:51.075Z,-143.64
2022-08-16T08:31:24.048Z,-143.64
2022-08-16T08:32:58.279Z,-143.64
2022-08-16T08:33:22.657Z,-143.64
2022-08-16T08:34:22.291Z,-143.64
2022-08-16T08:35:26.894Z,-143.64
2022-08-16T08:36:22.560Z,-143.64
2022-08-16T08:37:21.560Z,-143.64
2022-08-16T08:38:43.850Z,-143.64
2022-08-16T08:39:25.487Z,-143.64
2022-08-16T08:40:24.226Z,-143.64
2022-08-16T08:41:28.326Z,-143.64
2022-08-16T08:42:26.668Z,-143.64
2022-08-16T08:43:22.163Z,-143.64
2022-08-16T08:44:29.192Z,-143.64
2022-08-16T08:45:46.658Z,-143.64
2022-08-16T08:46:23.373Z,-143.64
2022-08-16T08:47:22.533Z,-143.64
2022-08-16T08:48:34.086Z,-143.64
2022-08-16T08:49:24.374Z,-143.64
2022-08-16T08:50:32.307Z,-143.64
2022-08-16T08:51:24.959Z,-143.64
2022-08-16T08:52:34.996Z,-143.64
2022-08-16T08:53:22.377Z,-143.64
2022-08-16T08:54:23.073Z,-143.64
2022-08-16T08:55:22.048Z,-143.64
2022-08-16T08:56:23.292Z,-143.64
2022-08-16T08:57:22.901Z,-143.64
2022-08-16T08:58:22.033Z,-143.64
2022-08-16T08:59:22.351Z,-143.64
2022-08-16T09:00:21.997Z,-143.64
2022-08-16T09:01:31.792Z,-143.64
2022-08-16T09:02:24.270Z,-143.64
2022-08-16T09:03:21.467Z,-143.64
2022-08-16T09:04:21.985Z,-143.64
2022-08-16T09:05:22.250Z,-143.64
2022-08-16T09:06:22.682Z,-143.64
2022-08-16T09:07:21.254Z,-143.64
2022-08-16T09:08:22.232Z,-143.64
2022-08-16T09:09:21.912Z,-143.64
2022-08-16T09:10:22.007Z,-143.64
2022-08-16T09:11:21.893Z,-143.64
2022-08-16T09:12:31.234Z,-143.64
2022-08-16T09:13:22.954Z,-143.64
2022-08-16T09:14:24.019Z,-143.64
2022-08-16T09:15:21.847Z,-143.64
2022-08-16T09:17:01.242Z,-143.64
2022-08-16T09:17:45.496Z,-143.64
2022-08-16T09:18:26.213Z,-143.64
2022-08-16T09:19:32.328Z,-143.64
2022-08-16T09:20:24.066Z,-143.64
2022-08-16T09:21:21.141Z,-143.64
2022-08-16T09:22:22.098Z,-143.64
2022-08-16T09:23:21.117Z,-143.64
2022-08-16T09:24:46.727Z,-143.64
2022-08-16T09:25:25.729Z,-143.64
2022-08-16T09:26:45.237Z,-143.64
2022-08-16T09:27:23.432Z,-143.64
2022-08-16T09:29:13.681Z,-143.64
2022-08-16T09:29:24.095Z,-143.64
2022-08-16T09:30:34.749Z,-143.64
2022-08-16T09:31:22.044Z,-143.64
2022-08-16T09:32:28.568Z,-143.64
2022-08-16T09:33:22.006Z,-143.64
2022-08-16T09:34:20.981Z,-143.64
2022-08-16T09:35:20.974Z,-143.64
2022-08-16T09:36:32.246Z,-143.64
2022-08-16T09:37:29.370Z,-143.64
2022-08-16T09:38:31.760Z,-143.64
2022-08-16T09:39:21.960Z,-143.64
2022-08-16T09:40:32.661Z,-143.64
2022-08-16T09:41:21.951Z,-143.64
2022-08-16T09:42:21.897Z,-143.64
2022-08-16T09:43:58.673Z,-143.64
2022-08-16T09:45:12.927Z,-143.64
2022-08-16T09:45:23.409Z,-143.64
2022-08-16T09:46:48.390Z,-143.64
2022-08-16T09:47:23.355Z,-143.64
2022-08-16T09:48:36.796Z,-143.64
2022-08-16T09:49:22.537Z,-143.64
2022-08-16T09:50:23.057Z,-143.64
2022-08-16T09:51:23.421Z,-143.64
2022-08-16T09:52:22.388Z,-143.64
2022-08-16T09:53:21.568Z,-143.64
2022-08-16T09:54:21.142Z,-143.64
2022-08-16T09:55:20.835Z,-143.64
2022-08-16T09:56:20.761Z,-143.64
2022-08-16T09:57:22.853Z,-143.64
2022-08-16T09:58:37.814Z,-143.64
2022-08-16T09:59:25.270Z,-143.64
2022-08-16T10:00:42.626Z,-143.64
2022-08-16T10:01:22.753Z,-143.64
2022-08-16T10:02:27.435Z,-143.64
2022-08-16T10:03:21.709Z,-143.64
2022-08-16T10:04:31.446Z,-143.64
2022-08-16T10:05:22.366Z,-143.64
2022-08-16T10:06:20.675Z,-143.64
2022-08-16T10:07:21.416Z,-143.64
2022-08-16T10:08:25.815Z,-143.64
2022-08-16T10:09:21.630Z,-143.64
2022-08-16T10:10:31.020Z,-143.64
2022-08-16T10:11:24.704Z,-143.64
2022-08-16T10:12:22.548Z,-143.64
2022-08-16T10:13:21.698Z,-143.64
2022-08-16T10:14:24.677Z,-143.64
2022-08-16T10:15:21.572Z,-143.64
2022-08-16T10:16:22.082Z,-143.64
2022-08-16T10:17:21.256Z,-143.64
2022-08-16T10:18:56.286Z,-143.64
2022-08-16T10:19:22.214Z,-143.64
2022-08-16T10:20:20.581Z,-143.64
2022-08-16T10:21:22.712Z,-143.64
2022-08-16T10:22:22.957Z,-143.64
2022-08-16T10:23:22.443Z,-143.64
2022-08-16T10:24:28.816Z,-143.64
2022-08-16T10:27:16.444Z,-143.64
2022-08-16T10:27:20.321Z,-143.64
2022-08-16T10:27:29.005Z,-143.64
2022-08-16T10:28:31.803Z,-143.64
2022-08-16T10:29:22.127Z,-143.64
2022-08-16T10:30:25.840Z,-143.64
2022-08-16T10:31:45.387Z,-143.64
2022-08-16T10:32:21.406Z,-143.64
2022-08-16T10:33:20.390Z,-143.64
2022-08-16T10:34:30.735Z,-143.64
2022-08-16T10:35:21.408Z,-143.64
2022-08-16T10:36:38.575Z,-143.64
2022-08-16T10:37:35.740Z,-143.64
2022-08-16T10:38:27.300Z,-143.64
2022-08-16T10:39:20.394Z,-143.64
2022-08-16T10:40:29.318Z,-143.64
2022-08-16T10:41:25.195Z,-143.64
2022-08-16T10:42:20.987Z,-143.64
2022-08-16T10:43:22.797Z,-143.64
2022-08-16T10:44:20.961Z,-143.64
2022-08-16T10:45:20.286Z,-143.64
2022-08-16T10:46:39.768Z,-143.64
2022-08-16T10:47:21.287Z,-143.64
2022-08-16T10:48:27.643Z,-143.64
2022-08-16T10:49:21.265Z,-143.64
2022-08-16T10:50:20.913Z,-143.64
2022-08-16T10:51:20.906Z,-143.64
2022-08-16T10:52:24.333Z,-143.64
2022-08-16T10:53:21.742Z,-143.64
2022-08-16T10:54:29.305Z,-143.64
2022-08-16T10:56:52.117Z,-143.64
2022-08-16T10:57:24.559Z,-143.64
2022-08-16T10:58:21.586Z,-143.64
2022-08-16T10:59:47.014Z,-143.64
2022-08-16T11:00:22.815Z,-143.64
2022-08-16T11:01:40.047Z,-143.64
2022-08-16T11:02:58.566Z,-143.64
2022-08-16T11:03:42.935Z,-143.64
2022-08-16T11:05:05.570Z,-143.64
2022-08-16T11:05:23.489Z,-143.64
2022-08-16T11:06:21.573Z,-143.64
2022-08-16T11:08:23.558Z,-143.64
2022-08-16T11:09:25.336Z,-143.64
2022-08-16T11:11:04.761Z,-143.64
2022-08-16T11:11:22.913Z,-143.64
2022-08-16T11:12:20.695Z,-143.64
2022-08-16T11:13:58.305Z,-143.64
2022-08-16T11:14:22.932Z,-143.64
2022-08-16T11:15:19.965Z,-143.64
2022-08-16T11:16:27.910Z,-143.64
2022-08-16T11:17:21.635Z,-143.64
2022-08-16T11:19:04.872Z,-143.64
2022-08-16T11:19:20.984Z,-143.64
2022-08-16T11:21:29.405Z,-143.64
2022-08-16T11:22:46.967Z,-143.64
2022-08-16T11:23:21.558Z,-143.64
2022-08-16T11:24:42.878Z,-143.64
2022-08-16T11:26:24.335Z,-143.64
2022-08-16T11:27:23.003Z,-143.64
2022-08-16T11:29:21.511Z,-143.64
2022-08-16T11:30:20.239Z,-143.64
2022-08-16T11:31:22.770Z,-143.64
2022-08-16T11:32:29.767Z,-143.64
2022-08-16T11:33:52.001Z,-143.64
2022-08-16T11:34:21.170Z,-143.64
2022-08-16T11:35:43.517Z,-143.64
2022-08-16T11:36:27.449Z,-143.64
2022-08-16T11:37:27.576Z,-143.64
2022-08-16T11:38:46.759Z,-143.64
2022-08-16T11:39:22.665Z,-143.64
2022-08-16T11:40:19.714Z,-143.64
2022-08-16T11:41:22.630Z,-143.64
2022-08-16T11:42:28.665Z,-143.64
2022-08-16T11:43:20.776Z,-143.64
2022-08-16T11:44:20.411Z,-143.64
2022-08-16T11:45:22.108Z,-143.64
2022-08-16T11:46:34.204Z,-143.64
2022-08-16T11:47:21.597Z,-143.64
2022-08-16T11:48:21.577Z,-143.64
2022-08-16T11:49:20.309Z,-143.64
2022-08-16T11:50:20.306Z,-143.64
2022-08-16T11:51:19.601Z,-143.64
2022-08-16T11:52:21.734Z,-143.64
2022-08-16T11:53:20.266Z,-143.64
2022-08-16T11:54:22.883Z,-143.64
2022-08-16T11:55:20.594Z,-143.64
2022-08-16T11:56:40.086Z,-143.64
2022-08-16T11:57:20.532Z,-143.64
2022-08-16T11:58:20.113Z,-143.64
2022-08-16T11:59:20.200Z,-143.64
2022-08-16T12:00:42.700Z,-143.64
2022-08-16T12:01:20.514Z,-143.64
2022-08-16T12:02:32.569Z,-143.64
2022-08-16T12:03:31.459Z,-143.64
2022-08-16T12:04:21.228Z,-143.64
2022-08-16T12:05:20.142Z,-143.64
2022-08-16T12:06:24.945Z,-143.64
2022-08-16T12:07:20.445Z,-143.64
2022-08-16T12:08:19.418Z,-143.64
2022-08-16T12:09:20.103Z,-143.64
2022-08-16T12:10:20.086Z,-143.64
2022-08-16T12:11:20.077Z,-143.64
2022-08-16T12:12:19.407Z,-143.64
2022-08-16T12:13:19.437Z,-143.64
2022-08-16T12:14:20.050Z,-143.64
2022-08-16T12:15:19.348Z,-143.64
2022-08-16T12:16:20.630Z,-143.64
2022-08-16T12:17:19.337Z,-143.64
2022-08-16T12:18:20.443Z,-143.64
2022-08-16T12:19:19.350Z,-143.64
2022-08-16T12:20:19.980Z,-143.64
2022-08-16T12:21:19.598Z,-143.64
2022-08-16T12:22:20.287Z,-143.64
2022-08-16T12:23:19.959Z,-143.64
2022-08-16T12:24:19.961Z,-143.64
2022-08-16T12:25:19.362Z,-143.64
2022-08-16T12:26:19.923Z,-143.64
2022-08-16T12:27:19.230Z,-143.64
2022-08-16T12:28:36.989Z,-143.64
2022-08-16T12:29:20.194Z,-143.64
2022-08-16T12:30:26.887Z,-143.64